createdAt,value
2017-07-26T00:01:00.588Z,990.8
2017-07-26T00:02:02.095Z,990.9
2017-07-26T00:03:03.668Z,990.9
2017-07-26T00:04:05.305Z,990.8
2017-07-26T00:05:06.838Z,990.9
2017-07-26T00:06:08.299Z,990.8
2017-07-26T00:07:09.764Z,990.8
2017-07-26T00:08:11.269Z,990.8
2017-07-26T00:09:12.768Z,990.8
2017-07-26T00:10:14.262Z,990.8
2017-07-26T00:11:15.761Z,990.8
2017-07-26T00:12:17.267Z,990.8
2017-07-26T00:13:18.798Z,990.8
2017-07-26T00:14:20.216Z,990.9
2017-07-26T00:15:21.723Z,990.8
2017-07-26T00:16:23.307Z,990.8
2017-07-26T00:17:24.872Z,990.8
2017-07-26T00:18:26.354Z,990.9
2017-07-26T00:19:27.863Z,990.8
2017-07-26T00:20:29.240Z,990.9
2017-07-26T00:21:30.947Z,990.9
2017-07-26T00:22:32.461Z,990.8
2017-07-26T00:23:34.012Z,990.8
2017-07-26T00:24:35.527Z,990.9
2017-07-26T00:25:37.049Z,990.8
2017-07-26T00:26:38.477Z,990.9
2017-07-26T00:27:39.982Z,990.8
2017-07-26T00:28:41.480Z,990.8
2017-07-26T00:29:42.984Z,990.8
2017-07-26T00:30:44.516Z,990.8
2017-07-26T00:31:46.081Z,990.9
2017-07-26T00:32:47.587Z,990.8
2017-07-26T00:33:49.199Z,990.9
2017-07-26T00:34:50.712Z,990.9
2017-07-26T00:35:52.218Z,990.8
2017-07-26T00:36:53.635Z,990.7
2017-07-26T00:37:55.140Z,990.8
2017-07-26T00:38:56.750Z,990.8
2017-07-26T00:39:58.263Z,990.8
2017-07-26T00:40:59.784Z,990.8
2017-07-26T00:42:01.306Z,990.8
2017-07-26T00:43:02.804Z,990.8
2017-07-26T00:44:04.355Z,990.8
2017-07-26T00:45:05.860Z,990.8
2017-07-26T00:46:07.471Z,990.8
2017-07-26T00:47:08.974Z,990.8
2017-07-26T00:48:10.501Z,990.8
2017-07-26T00:49:11.931Z,990.8
2017-07-26T00:50:13.385Z,990.7
2017-07-26T00:51:14.879Z,990.8
2017-07-26T00:52:16.384Z,990.7
2017-07-26T00:53:17.763Z,990.8
2017-07-26T00:54:19.451Z,990.8
2017-07-26T00:55:20.969Z,990.8
2017-07-26T00:56:22.541Z,990.7
2017-07-26T00:57:24.125Z,990.7
2017-07-26T00:58:25.630Z,990.7
2017-07-26T00:59:27.053Z,990.8
2017-07-26T01:00:28.561Z,990.7
2017-07-26T01:01:30.138Z,990.8
2017-07-26T01:02:31.643Z,990.8
2017-07-26T01:03:33.179Z,990.8
2017-07-26T01:04:34.596Z,990.8
2017-07-26T01:05:36.055Z,990.8
2017-07-26T01:06:37.580Z,990.8
2017-07-26T01:07:39.087Z,990.8
2017-07-26T01:08:40.629Z,990.8
2017-07-26T01:09:42.050Z,990.8
2017-07-26T01:10:43.555Z,990.7
2017-07-26T01:11:45.076Z,990.7
2017-07-26T01:12:46.580Z,990.7
2017-07-26T01:13:47.952Z,990.7
2017-07-26T01:14:49.566Z,990.7
2017-07-26T01:15:51.082Z,990.7
2017-07-26T01:16:52.631Z,990.7
2017-07-26T01:17:54.140Z,990.7
2017-07-26T01:18:55.529Z,990.7
2017-07-26T01:19:57.641Z,990.7
2017-07-26T01:20:59.136Z,990.6
2017-07-26T01:22:00.642Z,990.6
2017-07-26T01:23:02.195Z,990.6
2017-07-26T01:24:03.628Z,990.6
2017-07-26T01:25:05.141Z,990.6
2017-07-26T01:26:06.776Z,990.6
2017-07-26T01:27:08.290Z,990.6
2017-07-26T01:28:09.811Z,990.6
2017-07-26T01:29:11.256Z,990.5
2017-07-26T01:30:12.712Z,990.6
2017-07-26T01:31:14.392Z,990.6
2017-07-26T01:32:15.902Z,990.6
2017-07-26T01:33:17.423Z,990.6
2017-07-26T01:34:18.918Z,990.6
2017-07-26T01:35:20.413Z,990.6
2017-07-26T01:36:21.912Z,990.5
2017-07-26T01:37:23.424Z,990.5
2017-07-26T01:38:24.926Z,990.5
2017-07-26T01:39:26.445Z,990.5
2017-07-26T01:40:27.814Z,990.6
2017-07-26T01:41:29.432Z,990.6
2017-07-26T01:42:30.949Z,990.6
2017-07-26T01:43:32.464Z,990.6
2017-07-26T01:44:33.885Z,990.6
2017-07-26T01:45:35.394Z,990.6
2017-07-26T01:46:37.021Z,990.6
2017-07-26T01:47:38.535Z,990.6
2017-07-26T01:48:40.032Z,990.6
2017-07-26T01:49:41.587Z,990.6
2017-07-26T01:50:43.089Z,990.7
2017-07-26T01:51:44.605Z,990.7
2017-07-26T01:52:46.102Z,990.7
2017-07-26T01:53:47.605Z,990.7
2017-07-26T01:54:49.333Z,990.6
2017-07-26T01:55:50.834Z,990.7
2017-07-26T01:56:52.342Z,990.7
2017-07-26T01:57:53.954Z,990.7
2017-07-26T01:58:55.394Z,990.7
2017-07-26T01:59:56.912Z,990.7
2017-07-26T02:00:58.450Z,990.7
2017-07-26T02:02:00.005Z,990.7
2017-07-26T02:03:01.556Z,990.6
2017-07-26T02:04:02.975Z,990.7
2017-07-26T02:05:04.442Z,990.7
2017-07-26T02:06:05.961Z,990.7
2017-07-26T02:07:07.468Z,990.6
2017-07-26T02:08:08.966Z,990.7
2017-07-26T02:09:10.484Z,990.7
2017-07-26T02:10:11.994Z,990.7
2017-07-26T02:11:13.487Z,990.7
2017-07-26T02:12:14.985Z,990.7
2017-07-26T02:13:16.488Z,990.7
2017-07-26T02:14:18.001Z,990.7
2017-07-26T02:15:19.518Z,990.6
2017-07-26T02:16:21.022Z,990.7
2017-07-26T02:17:22.533Z,990.6
2017-07-26T02:18:24.047Z,990.7
2017-07-26T02:19:25.538Z,990.6
2017-07-26T02:20:27.029Z,990.7
2017-07-26T02:21:28.548Z,990.7
2017-07-26T02:22:29.973Z,990.8
2017-07-26T02:23:31.594Z,990.7
2017-07-26T02:24:33.085Z,990.8
2017-07-26T02:25:34.590Z,990.7
2017-07-26T02:26:36.090Z,990.7
2017-07-26T02:27:37.515Z,990.7
2017-07-26T02:28:39.019Z,990.8
2017-07-26T02:29:40.643Z,990.8
2017-07-26T02:30:42.141Z,990.7
2017-07-26T02:31:43.635Z,990.7
2017-07-26T02:32:45.020Z,990.8
2017-07-26T02:33:46.530Z,990.7
2017-07-26T02:34:48.151Z,990.8
2017-07-26T02:35:49.650Z,990.7
2017-07-26T02:36:51.155Z,990.7
2017-07-26T02:37:52.582Z,990.7
2017-07-26T02:38:54.094Z,990.7
2017-07-26T02:39:55.764Z,990.7
2017-07-26T02:40:57.271Z,990.7
2017-07-26T02:41:58.775Z,990.7
2017-07-26T02:43:00.279Z,990.7
2017-07-26T02:44:01.662Z,990.7
2017-07-26T02:45:03.264Z,990.7
2017-07-26T02:46:04.784Z,990.7
2017-07-26T02:47:06.289Z,990.7
2017-07-26T02:48:07.909Z,990.8
2017-07-26T02:49:09.410Z,990.8
2017-07-26T02:50:10.919Z,990.8
2017-07-26T02:51:12.422Z,990.7
2017-07-26T02:52:14.073Z,990.8
2017-07-26T02:53:15.580Z,990.8
2017-07-26T02:54:17.082Z,990.8
2017-07-26T02:55:18.617Z,990.8
2017-07-26T02:56:19.973Z,990.9
2017-07-26T02:57:21.623Z,990.8
2017-07-26T02:58:23.143Z,990.8
2017-07-26T02:59:24.644Z,990.7
2017-07-26T03:00:26.060Z,990.8
2017-07-26T03:01:27.569Z,990.8
2017-07-26T03:02:29.180Z,990.9
2017-07-26T03:03:30.705Z,990.8
2017-07-26T03:04:32.239Z,990.8
2017-07-26T03:05:33.758Z,990.7
2017-07-26T03:06:35.262Z,990.8
2017-07-26T03:07:36.764Z,990.8
2017-07-26T03:08:38.267Z,990.7
2017-07-26T03:09:39.784Z,990.7
2017-07-26T03:10:41.297Z,990.7
2017-07-26T03:11:42.776Z,990.8
2017-07-26T03:12:44.289Z,990.8
2017-07-26T03:13:45.802Z,990.8
2017-07-26T03:14:47.302Z,990.8
2017-07-26T03:15:48.807Z,990.8
2017-07-26T03:16:50.196Z,990.8
2017-07-26T03:17:51.775Z,990.8
2017-07-26T03:18:53.284Z,990.8
2017-07-26T03:19:54.781Z,990.8
2017-07-26T03:20:56.375Z,990.8
2017-07-26T03:21:57.882Z,990.8
2017-07-26T03:22:59.370Z,990.8
2017-07-26T03:24:00.873Z,990.8
2017-07-26T03:25:02.379Z,990.8
2017-07-26T03:26:03.809Z,990.8
2017-07-26T03:27:05.318Z,990.8
2017-07-26T03:28:06.928Z,990.9
2017-07-26T03:29:08.443Z,990.8
2017-07-26T03:30:09.952Z,990.8
2017-07-26T03:31:11.461Z,990.8
2017-07-26T03:32:12.826Z,990.9
2017-07-26T03:33:14.485Z,990.8
2017-07-26T03:34:15.989Z,990.8
2017-07-26T03:35:17.496Z,990.9
2017-07-26T03:36:19.009Z,990.8
2017-07-26T03:37:20.391Z,990.7
2017-07-26T03:38:22.017Z,990.8
2017-07-26T03:39:23.517Z,990.8
2017-07-26T03:40:25.037Z,990.8
2017-07-26T03:41:26.599Z,990.8
2017-07-26T03:42:28.148Z,990.9
2017-07-26T03:43:29.652Z,990.8
2017-07-26T03:44:31.161Z,990.8
2017-07-26T03:45:32.793Z,990.8
2017-07-26T03:46:34.307Z,990.9
2017-07-26T03:47:35.809Z,990.9
2017-07-26T03:48:37.410Z,990.9
2017-07-26T03:49:38.928Z,990.9
2017-07-26T03:50:40.348Z,990.8
2017-07-26T03:51:41.856Z,990.8
2017-07-26T03:52:43.356Z,990.9
2017-07-26T03:53:44.778Z,990.9
2017-07-26T03:54:46.280Z,990.9
2017-07-26T03:55:47.833Z,990.9
2017-07-26T03:56:49.330Z,990.9
2017-07-26T03:57:50.843Z,990.9
2017-07-26T03:58:52.267Z,990.9
2017-07-26T03:59:53.776Z,990.9
2017-07-26T04:00:55.283Z,990.9
2017-07-26T04:01:56.781Z,990.9
2017-07-26T04:02:58.279Z,990.9
2017-07-26T04:03:59.768Z,990.9
2017-07-26T04:05:01.295Z,990.9
2017-07-26T04:06:02.797Z,990.9
2017-07-26T04:07:04.217Z,990.9
2017-07-26T04:08:05.730Z,991.0
2017-07-26T04:09:07.295Z,990.9
2017-07-26T04:10:08.794Z,991.0
2017-07-26T04:11:10.309Z,990.9
2017-07-26T04:12:11.732Z,990.9
2017-07-26T04:13:13.210Z,991.0
2017-07-26T04:14:14.726Z,991.0
2017-07-26T04:15:16.221Z,991.1
2017-07-26T04:16:17.734Z,991.0
2017-07-26T04:17:19.244Z,991.1
2017-07-26T04:18:20.743Z,990.9
2017-07-26T04:19:22.313Z,991.1
2017-07-26T04:20:23.801Z,991.0
2017-07-26T04:21:25.311Z,991.1
2017-07-26T04:22:26.818Z,991.0
2017-07-26T04:23:28.333Z,991.1
2017-07-26T04:24:29.919Z,991.0
2017-07-26T04:25:31.472Z,991.1
2017-07-26T04:26:32.983Z,991.1
2017-07-26T04:27:34.415Z,991.1
2017-07-26T04:28:35.938Z,991.1
2017-07-26T04:29:37.409Z,991.1
2017-07-26T04:30:38.916Z,991.1
2017-07-26T04:31:40.424Z,991.1
2017-07-26T04:32:41.921Z,991.1
2017-07-26T04:33:43.425Z,991.1
2017-07-26T04:34:44.955Z,991.1
2017-07-26T04:35:46.454Z,991.2
2017-07-26T04:36:47.967Z,991.1
2017-07-26T04:37:49.467Z,991.1
2017-07-26T04:38:50.977Z,991.1
2017-07-26T04:39:52.519Z,991.1
2017-07-26T04:40:54.037Z,991.1
2017-07-26T04:41:55.535Z,991.2
2017-07-26T04:42:56.993Z,991.3
2017-07-26T04:43:58.506Z,991.2
2017-07-26T04:45:00.013Z,991.3
2017-07-26T04:46:01.515Z,991.3
2017-07-26T04:47:03.019Z,991.3
2017-07-26T04:48:04.509Z,991.4
2017-07-26T04:49:06.022Z,991.4
2017-07-26T04:50:07.490Z,991.3
2017-07-26T04:51:08.915Z,991.3
2017-07-26T04:52:10.377Z,991.3
2017-07-26T04:53:11.937Z,991.3
2017-07-26T04:54:13.440Z,991.3
2017-07-26T04:55:14.947Z,991.3
2017-07-26T04:56:16.447Z,991.4
2017-07-26T04:57:17.987Z,991.4
2017-07-26T04:58:19.616Z,991.4
2017-07-26T04:59:21.125Z,991.4
2017-07-26T05:00:22.632Z,991.3
2017-07-26T05:01:24.056Z,991.4
2017-07-26T05:02:25.593Z,991.4
2017-07-26T05:03:27.022Z,991.4
2017-07-26T05:04:28.544Z,991.4
2017-07-26T05:05:30.102Z,991.5
2017-07-26T05:06:31.532Z,991.5
2017-07-26T05:07:33.087Z,991.4
2017-07-26T05:08:34.731Z,991.5
2017-07-26T05:09:36.265Z,991.5
2017-07-26T05:10:37.853Z,991.5
2017-07-26T05:11:39.357Z,991.5
2017-07-26T05:12:40.871Z,991.5
2017-07-26T05:13:42.302Z,991.5
2017-07-26T05:14:43.820Z,991.5
2017-07-26T05:15:45.331Z,991.5
2017-07-26T05:16:46.908Z,991.5
2017-07-26T05:17:48.412Z,991.6
2017-07-26T05:18:49.838Z,991.5
2017-07-26T05:19:51.400Z,991.6
2017-07-26T05:20:53.055Z,991.6
2017-07-26T05:21:54.574Z,991.6
2017-07-26T05:22:56.089Z,991.6
2017-07-26T05:23:57.594Z,991.6
2017-07-26T05:24:59.104Z,991.6
2017-07-26T05:26:00.610Z,991.5
2017-07-26T05:27:02.127Z,991.6
2017-07-26T05:28:03.637Z,991.6
2017-07-26T05:29:05.138Z,991.6
2017-07-26T05:30:06.651Z,991.6
2017-07-26T05:31:08.141Z,991.6
2017-07-26T05:32:09.644Z,991.6
2017-07-26T05:33:11.162Z,991.6
2017-07-26T05:34:12.674Z,991.7
2017-07-26T05:35:14.051Z,991.7
2017-07-26T05:36:15.803Z,991.7
2017-07-26T05:37:17.310Z,991.7
2017-07-26T05:38:18.770Z,991.7
2017-07-26T05:39:20.303Z,991.7
2017-07-26T05:40:21.842Z,991.6
2017-07-26T05:41:23.292Z,991.7
2017-07-26T05:42:24.812Z,991.6
2017-07-26T05:43:26.481Z,991.8
2017-07-26T05:44:28.009Z,991.7
2017-07-26T05:45:29.532Z,991.7
2017-07-26T05:46:31.064Z,991.7
2017-07-26T05:47:32.600Z,991.8
2017-07-26T05:48:34.043Z,991.7
2017-07-26T05:49:35.559Z,991.7
2017-07-26T05:50:37.080Z,991.8
2017-07-26T05:51:38.593Z,991.8
2017-07-26T05:52:40.117Z,991.8
2017-07-26T05:53:41.622Z,991.8
2017-07-26T05:54:43.130Z,991.8
2017-07-26T05:55:44.746Z,991.8
2017-07-26T05:56:46.277Z,991.8
2017-07-26T05:57:47.806Z,991.8
2017-07-26T05:58:49.346Z,991.9
2017-07-26T05:59:50.861Z,991.9
2017-07-26T06:00:52.391Z,991.9
2017-07-26T06:01:53.920Z,991.9
2017-07-26T06:02:55.525Z,991.9
2017-07-26T06:03:57.047Z,991.9
2017-07-26T06:04:58.566Z,991.9
2017-07-26T06:06:00.101Z,992.0
2017-07-26T06:07:01.618Z,991.9
2017-07-26T06:08:03.137Z,991.9
2017-07-26T06:09:04.653Z,992.0
2017-07-26T06:10:06.174Z,992.0
2017-07-26T06:11:07.709Z,992.0
2017-07-26T06:12:09.217Z,992.0
2017-07-26T06:13:10.727Z,992.0
2017-07-26T06:14:12.231Z,992.0
2017-07-26T06:15:13.965Z,992.1
2017-07-26T06:16:15.475Z,992.1
2017-07-26T06:17:17.016Z,992.0
2017-07-26T06:18:18.524Z,992.1
2017-07-26T06:19:20.040Z,992.1
2017-07-26T06:20:21.490Z,992.2
2017-07-26T06:21:22.997Z,992.1
2017-07-26T06:22:24.619Z,992.1
2017-07-26T06:23:26.131Z,992.1
2017-07-26T06:24:27.640Z,992.2
2017-07-26T06:25:29.091Z,992.2
2017-07-26T06:26:30.612Z,992.3
2017-07-26T06:27:32.072Z,992.3
2017-07-26T06:28:33.593Z,992.3
2017-07-26T06:29:35.093Z,992.3
2017-07-26T06:30:36.605Z,992.3
2017-07-26T06:31:38.126Z,992.3
2017-07-26T06:32:39.756Z,992.3
2017-07-26T06:33:42.134Z,992.3
2017-07-26T06:34:43.630Z,992.3
2017-07-26T06:35:45.176Z,992.3
2017-07-26T06:36:46.703Z,992.3
2017-07-26T06:37:48.162Z,992.3
2017-07-26T06:38:49.689Z,992.4
2017-07-26T06:39:51.202Z,992.4
2017-07-26T06:40:52.723Z,992.4
2017-07-26T06:41:54.244Z,992.4
2017-07-26T06:42:55.823Z,992.4
2017-07-26T06:43:57.338Z,992.5
2017-07-26T06:44:58.850Z,992.5
2017-07-26T06:46:00.280Z,992.4
2017-07-26T06:47:01.753Z,992.4
2017-07-26T06:48:03.368Z,992.5
2017-07-26T06:49:04.933Z,992.5
2017-07-26T06:50:06.449Z,992.5
2017-07-26T06:51:07.959Z,992.5
2017-07-26T06:52:09.485Z,992.5
2017-07-26T06:53:10.999Z,992.5
2017-07-26T06:54:12.532Z,992.5
2017-07-26T06:55:14.175Z,992.5
2017-07-26T06:56:15.694Z,992.5
2017-07-26T06:57:17.202Z,992.5
2017-07-26T06:58:18.724Z,992.5
2017-07-26T06:59:20.224Z,992.6
2017-07-26T07:00:21.722Z,992.6
2017-07-26T07:01:23.230Z,992.6
2017-07-26T07:02:24.742Z,992.6
2017-07-26T07:03:26.334Z,992.6
2017-07-26T07:04:27.839Z,992.6
2017-07-26T07:05:29.399Z,992.6
2017-07-26T07:06:30.912Z,992.6
2017-07-26T07:07:32.352Z,992.6
2017-07-26T07:08:33.878Z,992.6
2017-07-26T07:09:35.387Z,992.6
2017-07-26T07:10:36.982Z,992.6
2017-07-26T07:11:38.506Z,992.6
2017-07-26T07:12:39.952Z,992.7
2017-07-26T07:13:41.461Z,992.7
2017-07-26T07:14:42.970Z,992.7
2017-07-26T07:15:44.407Z,992.7
2017-07-26T07:16:45.916Z,992.7
2017-07-26T07:17:47.421Z,992.7
2017-07-26T07:18:48.938Z,992.7
2017-07-26T07:19:50.457Z,992.8
2017-07-26T07:20:51.970Z,992.8
2017-07-26T07:21:53.484Z,992.8
2017-07-26T07:22:55.007Z,992.7
2017-07-26T07:23:56.515Z,992.8
2017-07-26T07:24:58.014Z,992.7
2017-07-26T07:25:59.517Z,992.8
2017-07-26T07:27:01.048Z,992.7
2017-07-26T07:28:02.712Z,992.8
2017-07-26T07:29:04.216Z,992.8
2017-07-26T07:30:05.727Z,992.9
2017-07-26T07:31:07.241Z,992.8
2017-07-26T07:32:08.607Z,992.8
2017-07-26T07:33:10.267Z,992.8
2017-07-26T07:34:11.780Z,992.9
2017-07-26T07:35:13.295Z,992.9
2017-07-26T07:36:14.840Z,992.9
2017-07-26T07:37:16.369Z,992.9
2017-07-26T07:38:17.887Z,992.9
2017-07-26T07:39:19.352Z,992.9
2017-07-26T07:40:20.870Z,992.9
2017-07-26T07:41:22.381Z,992.9
2017-07-26T07:42:23.993Z,993.0
2017-07-26T07:43:25.432Z,993.0
2017-07-26T07:44:26.889Z,992.9
2017-07-26T07:45:28.390Z,993.0
2017-07-26T07:46:29.905Z,993.0
2017-07-26T07:47:31.445Z,993.0
2017-07-26T07:48:32.912Z,992.9
2017-07-26T07:49:34.423Z,992.9
2017-07-26T07:50:35.930Z,993.0
2017-07-26T07:51:37.440Z,993.0
2017-07-26T07:52:38.967Z,993.0
2017-07-26T07:53:40.487Z,993.0
2017-07-26T07:54:42.007Z,993.0
2017-07-26T07:55:44.187Z,993.0
2017-07-26T07:56:46.193Z,993.0
2017-07-26T07:57:47.695Z,992.9
2017-07-26T07:58:49.214Z,992.9
2017-07-26T07:59:50.596Z,992.9
2017-07-26T08:00:52.226Z,993.0
2017-07-26T08:01:53.736Z,992.9
2017-07-26T08:02:55.250Z,993.0
2017-07-26T08:03:56.756Z,992.9
2017-07-26T08:04:58.144Z,993.0
2017-07-26T08:05:59.770Z,993.0
2017-07-26T08:07:01.281Z,992.9
2017-07-26T08:08:02.817Z,993.0
2017-07-26T08:09:04.325Z,993.0
2017-07-26T08:10:05.834Z,993.0
2017-07-26T08:11:07.334Z,993.0
2017-07-26T08:12:08.885Z,993.0
2017-07-26T08:13:10.411Z,993.0
2017-07-26T08:14:11.941Z,993.0
2017-07-26T08:15:13.447Z,993.0
2017-07-26T08:16:14.961Z,993.0
2017-07-26T08:17:16.477Z,993.0
2017-07-26T08:18:18.066Z,993.0
2017-07-26T08:19:19.584Z,993.0
2017-07-26T08:20:21.102Z,993.1
2017-07-26T08:21:22.529Z,993.0
2017-07-26T08:22:24.052Z,993.0
2017-07-26T08:23:25.514Z,993.1
2017-07-26T08:24:27.025Z,993.1
2017-07-26T08:25:28.533Z,993.1
2017-07-26T08:26:30.039Z,993.1
2017-07-26T08:27:31.563Z,993.1
2017-07-26T08:28:33.210Z,993.1
2017-07-26T08:29:34.711Z,993.0
2017-07-26T08:30:36.225Z,993.1
2017-07-26T08:31:37.738Z,993.1
2017-07-26T08:32:39.223Z,993.1
2017-07-26T08:33:40.723Z,993.1
2017-07-26T08:34:42.234Z,993.1
2017-07-26T08:35:43.743Z,993.1
2017-07-26T08:36:45.171Z,993.1
2017-07-26T08:37:46.663Z,993.1
2017-07-26T08:38:48.308Z,993.1
2017-07-26T08:39:49.822Z,993.1
2017-07-26T08:40:51.409Z,993.0
2017-07-26T08:41:52.914Z,993.1
2017-07-26T08:42:54.427Z,993.1
2017-07-26T08:43:55.859Z,993.1
2017-07-26T08:44:57.364Z,993.1
2017-07-26T08:45:58.874Z,993.1
2017-07-26T08:47:00.389Z,993.1
2017-07-26T08:48:01.958Z,993.1
2017-07-26T08:49:03.470Z,993.1
2017-07-26T08:50:04.975Z,993.1
2017-07-26T08:51:06.596Z,993.2
2017-07-26T08:52:08.108Z,993.2
2017-07-26T08:53:09.620Z,993.2
2017-07-26T08:54:11.055Z,993.2
2017-07-26T08:55:12.585Z,993.2
2017-07-26T08:56:14.033Z,993.2
2017-07-26T08:57:15.549Z,993.2
2017-07-26T08:58:17.064Z,993.2
2017-07-26T08:59:18.657Z,993.2
2017-07-26T09:00:20.170Z,993.2
2017-07-26T09:01:21.593Z,993.3
2017-07-26T09:02:23.099Z,993.2
2017-07-26T09:03:24.616Z,993.2
2017-07-26T09:04:26.123Z,993.2
2017-07-26T09:05:27.779Z,993.2
2017-07-26T09:06:29.303Z,993.2
2017-07-26T09:07:31.647Z,993.2
2017-07-26T09:08:33.176Z,993.2
2017-07-26T09:09:34.604Z,993.3
2017-07-26T09:10:36.121Z,993.3
2017-07-26T09:11:37.621Z,993.3
2017-07-26T09:12:39.144Z,993.3
2017-07-26T09:13:40.522Z,993.2
2017-07-26T09:14:42.156Z,993.3
2017-07-26T09:15:43.673Z,993.3
2017-07-26T09:16:45.194Z,993.3
2017-07-26T09:17:46.700Z,993.3
2017-07-26T09:18:48.192Z,993.3
2017-07-26T09:19:49.728Z,993.3
2017-07-26T09:20:51.247Z,993.3
2017-07-26T09:21:52.756Z,993.3
2017-07-26T09:22:54.256Z,993.3
2017-07-26T09:23:55.773Z,993.3
2017-07-26T09:24:57.282Z,993.4
2017-07-26T09:25:58.788Z,993.3
